createdAt,value
2019-01-05T00:00:05.262Z,6.8
2019-01-05T00:01:07.402Z,6.8
2019-01-05T00:02:09.838Z,6.8
2019-01-05T00:03:11.989Z,6.8
2019-01-05T00:04:14.134Z,6.8
2019-01-05T00:05:16.307Z,6.9
2019-01-05T00:06:18.422Z,6.9
2019-01-05T00:07:20.877Z,6.9
2019-01-05T00:08:23.027Z,6.9
2019-01-05T00:09:25.228Z,6.9
2019-01-05T00:10:27.376Z,6.9
2019-01-05T00:11:29.504Z,6.9
2019-01-05T00:12:31.693Z,6.9
2019-01-05T00:13:33.835Z,6.9
2019-01-05T00:14:35.969Z,6.9
2019-01-05T00:15:38.127Z,6.9
2019-01-05T00:16:40.264Z,6.9
2019-01-05T00:17:42.386Z,6.9
2019-01-05T00:18:44.575Z,6.9
2019-01-05T00:19:46.716Z,6.9
2019-01-05T00:20:49.139Z,6.9
2019-01-05T00:21:51.283Z,6.9
2019-01-05T00:22:53.731Z,7
2019-01-05T00:23:55.882Z,7
2019-01-05T00:24:58.291Z,6.9
2019-01-05T00:26:00.470Z,7
2019-01-05T00:27:02.597Z,6.9
2019-01-05T00:28:05.042Z,6.9
2019-01-05T00:29:07.168Z,7
2019-01-05T00:30:09.582Z,7
2019-01-05T00:31:11.722Z,7
2019-01-05T00:32:13.909Z,7
2019-01-05T00:33:16.052Z,7
2019-01-05T00:34:18.165Z,7
2019-01-05T00:35:20.313Z,7
2019-01-05T00:36:22.529Z,7
2019-01-05T00:37:24.651Z,7
2019-01-05T00:38:26.803Z,7
2019-01-05T00:39:28.959Z,7
2019-01-05T00:40:31.176Z,7
2019-01-05T00:41:33.378Z,7
2019-01-05T00:42:35.532Z,7
2019-01-05T00:43:37.726Z,7
2019-01-05T00:44:39.900Z,7
2019-01-05T00:45:42.068Z,7
2019-01-05T00:46:44.230Z,7
2019-01-05T00:47:46.377Z,7
2019-01-05T00:48:48.551Z,7
2019-01-05T00:49:50.693Z,7
2019-01-05T00:50:52.855Z,7.1
2019-01-05T00:51:55.290Z,7.1
2019-01-05T00:52:57.445Z,7.1
2019-01-05T00:53:59.600Z,7.1
2019-01-05T00:55:01.737Z,7.1
2019-01-05T00:56:04.217Z,7.1
2019-01-05T00:57:06.359Z,7.1
2019-01-05T00:58:08.495Z,7.1
2019-01-05T00:59:10.639Z,7.1
2019-01-05T01:00:12.800Z,7.1
2019-01-05T01:01:14.970Z,7.1
2019-01-05T01:02:17.397Z,7.1
2019-01-05T01:03:19.528Z,7.1
2019-01-05T01:04:21.971Z,7.1
2019-01-05T01:05:24.123Z,7.1
2019-01-05T01:06:26.559Z,7.1
2019-01-05T01:07:28.689Z,7.1
2019-01-05T01:08:31.096Z,7.1
2019-01-05T01:09:33.541Z,7.2
2019-01-05T01:10:35.679Z,7.2
2019-01-05T01:11:37.789Z,7.1
2019-01-05T01:12:39.924Z,7.2
2019-01-05T01:13:42.076Z,7.2
2019-01-05T01:14:44.767Z,7.2
2019-01-05T01:15:46.883Z,7.2
2019-01-05T01:16:49.028Z,7.2
2019-01-05T01:17:51.154Z,7.2
2019-01-05T01:18:53.299Z,7.2
2019-01-05T01:19:55.433Z,7.2
2019-01-05T01:20:57.865Z,7.2
2019-01-05T01:22:00.008Z,7.2
2019-01-05T01:23:02.160Z,7.2
2019-01-05T01:24:04.287Z,7.2
2019-01-05T01:25:06.712Z,7.2
2019-01-05T01:26:08.862Z,7.2
2019-01-05T01:27:11.008Z,7.2
2019-01-05T01:28:13.149Z,7.2
2019-01-05T01:29:15.279Z,7.2
2019-01-05T01:30:17.433Z,7.2
2019-01-05T01:31:19.554Z,7.2
2019-01-05T01:32:21.699Z,7.2
2019-01-05T01:33:24.216Z,7.2
2019-01-05T01:34:26.344Z,7.2
2019-01-05T01:35:28.493Z,7.2
2019-01-05T01:36:30.621Z,7.2
2019-01-05T01:37:33.055Z,7.2
2019-01-05T01:38:35.190Z,7.2
2019-01-05T01:39:37.617Z,7.2
2019-01-05T01:40:39.760Z,7.2
2019-01-05T01:41:42.547Z,7.2
2019-01-05T01:42:44.698Z,7.2
2019-01-05T01:43:46.831Z,7.2
2019-01-05T01:44:48.960Z,7.2
2019-01-05T01:45:51.103Z,7.2
2019-01-05T01:46:53.278Z,7.2
2019-01-05T01:47:55.430Z,7.2
2019-01-05T01:48:57.577Z,7.2
2019-01-05T01:49:59.716Z,7.2
2019-01-05T01:51:01.875Z,7.2
2019-01-05T01:52:04.005Z,7.2
2019-01-05T01:53:06.416Z,7.2
2019-01-05T01:54:08.556Z,7.2
2019-01-05T01:55:10.701Z,7.2
2019-01-05T01:56:12.846Z,7.2
2019-01-05T01:57:15.668Z,7.2
2019-01-05T01:58:17.784Z,7.2
2019-01-05T01:59:19.915Z,7.2
2019-01-05T02:00:22.085Z,7.2
2019-01-05T02:01:24.522Z,7.2
2019-01-05T02:02:27.920Z,7.2
2019-01-05T02:03:30.055Z,7.3
2019-01-05T02:04:32.213Z,7.2
2019-01-05T02:05:34.361Z,7.2
2019-01-05T02:06:36.511Z,7.2
2019-01-05T02:07:39.021Z,7.2
2019-01-05T02:08:41.145Z,7.3
2019-01-05T02:09:43.567Z,7.3
2019-01-05T02:10:45.718Z,7.3
2019-01-05T02:11:47.854Z,7.3
2019-01-05T02:12:49.989Z,7.3
2019-01-05T02:13:52.120Z,7.3
2019-01-05T02:14:54.253Z,7.3
2019-01-05T02:15:56.390Z,7.3
2019-01-05T02:16:58.538Z,7.3
2019-01-05T02:18:00.667Z,7.3
2019-01-05T02:19:03.186Z,7.3
2019-01-05T02:20:05.341Z,7.3
2019-01-05T02:21:08.082Z,7.3
2019-01-05T02:22:10.520Z,7.3
2019-01-05T02:23:12.664Z,7.3
2019-01-05T02:24:14.799Z,7.3
2019-01-05T02:25:16.961Z,7.3
2019-01-05T02:26:19.132Z,7.3
2019-01-05T02:27:21.303Z,7.4
2019-01-05T02:28:23.828Z,7.3
2019-01-05T02:29:25.975Z,7.4
2019-01-05T02:30:28.526Z,7.3
2019-01-05T02:31:30.674Z,7.4
2019-01-05T02:32:32.802Z,7.3
2019-01-05T02:33:34.983Z,7.3
2019-01-05T02:34:37.129Z,7.3
2019-01-05T02:35:39.566Z,7.3
2019-01-05T02:36:42.000Z,7.3
2019-01-05T02:37:44.189Z,7.4
2019-01-05T02:38:46.346Z,7.3
2019-01-05T02:39:48.773Z,7.4
2019-01-05T02:40:50.940Z,7.4
2019-01-05T02:41:54.064Z,7.3
2019-01-05T02:42:56.205Z,7.4
2019-01-05T02:43:58.343Z,7.4
2019-01-05T02:45:00.842Z,7.4
2019-01-05T02:46:03.038Z,7.4
2019-01-05T02:47:05.480Z,7.4
2019-01-05T02:48:07.625Z,7.4
2019-01-05T02:49:10.067Z,7.4
2019-01-05T02:50:12.877Z,7.4
2019-01-05T02:51:15.012Z,7.4
2019-01-05T02:52:17.591Z,7.4
2019-01-05T02:53:19.755Z,7.4
2019-01-05T02:54:21.894Z,7.4
2019-01-05T02:55:24.068Z,7.4
2019-01-05T02:56:26.200Z,7.4
2019-01-05T02:57:28.624Z,7.4
2019-01-05T02:58:30.751Z,7.4
2019-01-05T02:59:33.184Z,7.4
2019-01-05T03:00:36.090Z,7.4
2019-01-05T03:01:38.266Z,7.4
2019-01-05T03:02:40.416Z,7.4
2019-01-05T03:03:42.552Z,7.4
2019-01-05T03:04:44.696Z,7.4
2019-01-05T03:05:46.859Z,7.4
2019-01-05T03:06:49.290Z,7.4
2019-01-05T03:07:51.472Z,7.4
2019-01-05T03:08:53.634Z,7.4
2019-01-05T03:09:55.783Z,7.4
2019-01-05T03:10:57.917Z,7.4
2019-01-05T03:12:00.334Z,7.4
2019-01-05T03:13:03.045Z,7.4
2019-01-05T03:14:05.594Z,7.4
2019-01-05T03:15:08.055Z,7.4
2019-01-05T03:16:10.192Z,7.4
2019-01-05T03:17:12.714Z,7.4
2019-01-05T03:18:15.146Z,7.4
2019-01-05T03:19:17.292Z,7.4
2019-01-05T03:20:19.438Z,7.4
2019-01-05T03:21:21.597Z,7.4
2019-01-05T03:22:24.047Z,7.4
2019-01-05T03:23:26.487Z,7.4
2019-01-05T03:24:28.657Z,7.4
2019-01-05T03:25:31.119Z,7.4
2019-01-05T03:26:33.278Z,7.4
2019-01-05T03:27:35.414Z,7.4
2019-01-05T03:28:37.840Z,7.4
2019-01-05T03:29:39.989Z,7.4
2019-01-05T03:30:42.733Z,7.4
2019-01-05T03:31:45.223Z,7.4
2019-01-05T03:32:47.718Z,7.4
2019-01-05T03:33:49.848Z,7.4
2019-01-05T03:34:51.971Z,7.4
2019-01-05T03:35:54.104Z,7.4
2019-01-05T03:36:56.226Z,7.4
2019-01-05T03:37:58.361Z,7.4
2019-01-05T03:39:00.893Z,7.4
2019-01-05T03:40:03.617Z,7.4
2019-01-05T03:41:05.742Z,7.4
2019-01-05T03:42:07.882Z,7.4
2019-01-05T03:43:10.019Z,7.4
2019-01-05T03:44:12.163Z,7.4
2019-01-05T03:45:14.323Z,7.4
2019-01-05T03:46:16.472Z,7.4
2019-01-05T03:47:18.992Z,7.4
2019-01-05T03:48:21.118Z,7.4
2019-01-05T03:49:23.709Z,7.4
2019-01-05T03:50:26.170Z,7.4
2019-01-05T03:51:28.317Z,7.4
2019-01-05T03:52:30.474Z,7.4
2019-01-05T03:53:32.925Z,7.4
2019-01-05T03:54:35.347Z,7.4
2019-01-05T03:55:37.497Z,7.4
2019-01-05T03:56:39.662Z,7.4
2019-01-05T03:57:41.803Z,7.4
2019-01-05T03:58:43.935Z,7.4
2019-01-05T03:59:46.089Z,7.4
2019-01-05T04:00:48.209Z,7.4
2019-01-05T04:01:50.369Z,7.4
2019-01-05T04:02:52.801Z,7.4
2019-01-05T04:03:54.945Z,7.4
2019-01-05T04:04:57.057Z,7.4
2019-01-05T04:05:59.510Z,7.5
2019-01-05T04:07:01.938Z,7.4
2019-01-05T04:08:04.071Z,7.5
2019-01-05T04:09:06.222Z,7.4
2019-01-05T04:10:08.370Z,7.4
2019-01-05T04:11:10.819Z,7.4
2019-01-05T04:12:13.225Z,7.4
2019-01-05T04:13:15.353Z,7.4
2019-01-05T04:14:17.485Z,7.4
2019-01-05T04:15:19.623Z,7.4
2019-01-05T04:16:21.776Z,7.4
2019-01-05T04:17:24.228Z,7.4
2019-01-05T04:18:26.385Z,7.4
2019-01-05T04:19:28.527Z,7.4
2019-01-05T04:20:30.666Z,7.4
2019-01-05T04:21:32.800Z,7.4
2019-01-05T04:22:34.927Z,7.4
2019-01-05T04:23:37.063Z,7.4
2019-01-05T04:24:39.488Z,7.4
2019-01-05T04:25:41.621Z,7.4
2019-01-05T04:26:43.764Z,7.4
2019-01-05T04:27:45.913Z,7.4
2019-01-05T04:28:48.429Z,7.4
2019-01-05T04:29:50.556Z,7.4
2019-01-05T04:30:52.704Z,7.4
2019-01-05T04:31:54.826Z,7.4
2019-01-05T04:32:56.961Z,7.4
2019-01-05T04:33:59.112Z,7.5
2019-01-05T04:35:01.430Z,7.4
2019-01-05T04:36:03.571Z,7.4
2019-01-05T04:37:06.015Z,7.4
2019-01-05T04:38:08.173Z,7.4
2019-01-05T04:39:10.303Z,7.5
2019-01-05T04:40:12.750Z,7.5
2019-01-05T04:41:14.891Z,7.4
2019-01-05T04:42:17.053Z,7.4
2019-01-05T04:43:19.196Z,7.5
2019-01-05T04:44:21.350Z,7.5
2019-01-05T04:45:23.504Z,7.5
2019-01-05T04:46:25.635Z,7.5
2019-01-05T04:47:27.783Z,7.5
2019-01-05T04:48:29.944Z,7.5
2019-01-05T04:49:32.491Z,7.5
2019-01-05T04:50:34.939Z,7.5
2019-01-05T04:51:37.379Z,7.5
2019-01-05T04:52:39.827Z,7.5
2019-01-05T04:53:41.969Z,7.5
2019-01-05T04:54:44.130Z,7.5
2019-01-05T04:55:46.283Z,7.5
2019-01-05T04:56:48.832Z,7.5
2019-01-05T04:57:51.257Z,7.5
2019-01-05T04:58:53.705Z,7.5
2019-01-05T04:59:56.125Z,7.5
2019-01-05T05:00:58.588Z,7.5
2019-01-05T05:02:00.760Z,7.5
2019-01-05T05:03:03.196Z,7.5
2019-01-05T05:04:05.660Z,7.5
2019-01-05T05:05:07.783Z,7.5
2019-01-05T05:06:09.898Z,7.5
2019-01-05T05:07:12.034Z,7.5
2019-01-05T05:08:14.855Z,7.5
2019-01-05T05:09:17.010Z,7.5
2019-01-05T05:10:19.508Z,7.5
2019-01-05T05:11:21.649Z,7.5
2019-01-05T05:12:23.838Z,7.5
2019-01-05T05:13:25.978Z,7.5
2019-01-05T05:14:28.108Z,7.5
2019-01-05T05:15:31.084Z,7.5
2019-01-05T05:16:33.491Z,7.6
2019-01-05T05:17:35.650Z,7.6
2019-01-05T05:18:38.758Z,7.5
2019-01-05T05:19:40.899Z,7.6
2019-01-05T05:20:43.047Z,7.6
2019-01-05T05:21:45.204Z,7.6
2019-01-05T05:22:47.646Z,7.6
2019-01-05T05:23:49.787Z,7.6
2019-01-05T05:24:51.908Z,7.6
2019-01-05T05:25:54.425Z,7.6
2019-01-05T05:26:56.826Z,7.6
2019-01-05T05:27:58.983Z,7.6
2019-01-05T05:29:01.441Z,7.6
2019-01-05T05:30:03.600Z,7.6
2019-01-05T05:31:05.748Z,7.6
2019-01-05T05:32:07.889Z,7.6
2019-01-05T05:33:10.025Z,7.5
2019-01-05T05:34:12.164Z,7.5
2019-01-05T05:35:14.298Z,7.6
2019-01-05T05:36:16.447Z,7.5
2019-01-05T05:37:18.583Z,7.5
2019-01-05T05:38:20.718Z,7.5
2019-01-05T05:39:23.252Z,7.5
2019-01-05T05:40:25.404Z,7.6
2019-01-05T05:41:27.862Z,7.5
2019-01-05T05:42:30.040Z,7.6
2019-01-05T05:43:32.489Z,7.6
2019-01-05T05:44:34.607Z,7.5
2019-01-05T05:45:36.762Z,7.6
2019-01-05T05:46:39.498Z,7.6
2019-01-05T05:47:41.665Z,7.6
2019-01-05T05:48:43.810Z,7.6
2019-01-05T05:49:45.957Z,7.5
2019-01-05T05:50:48.355Z,7.6
2019-01-05T05:51:50.510Z,7.6
2019-01-05T05:52:52.663Z,7.6
2019-01-05T05:53:54.806Z,7.6
2019-01-05T05:54:57.367Z,7.6
2019-01-05T05:55:59.510Z,7.6
2019-01-05T05:57:01.634Z,7.6
2019-01-05T05:58:03.775Z,7.6
2019-01-05T05:59:05.901Z,7.6
2019-01-05T06:00:08.055Z,7.6
2019-01-05T06:01:10.207Z,7.6
2019-01-05T06:02:12.354Z,7.6
2019-01-05T06:03:14.789Z,7.6
2019-01-05T06:04:16.930Z,7.6
2019-01-05T06:05:19.362Z,7.6
2019-01-05T06:06:21.514Z,7.6
2019-01-05T06:07:23.956Z,7.6
2019-01-05T06:08:26.103Z,7.6
2019-01-05T06:09:28.249Z,7.6
2019-01-05T06:10:30.397Z,7.6
2019-01-05T06:11:33.264Z,7.6
2019-01-05T06:12:35.406Z,7.6
2019-01-05T06:13:37.536Z,7.6
2019-01-05T06:14:40.441Z,7.6
2019-01-05T06:15:42.580Z,7.6
2019-01-05T06:16:45.102Z,7.6
2019-01-05T06:17:47.214Z,7.6
2019-01-05T06:18:49.357Z,7.6
2019-01-05T06:19:51.876Z,7.6
2019-01-05T06:20:54.023Z,7.6
2019-01-05T06:21:56.166Z,7.6
2019-01-05T06:22:58.294Z,7.6
2019-01-05T06:24:00.739Z,7.6
2019-01-05T06:25:03.845Z,7.6
2019-01-05T06:26:05.979Z,7.6
2019-01-05T06:27:08.107Z,7.6
2019-01-05T06:28:10.522Z,7.6
2019-01-05T06:29:12.662Z,7.6
2019-01-05T06:30:14.795Z,7.6
2019-01-05T06:31:17.206Z,7.6
2019-01-05T06:32:19.313Z,7.6
2019-01-05T06:33:21.468Z,7.6
2019-01-05T06:34:23.599Z,7.6
2019-01-05T06:35:25.730Z,7.6
2019-01-05T06:36:28.454Z,7.6
2019-01-05T06:37:30.584Z,7.6
2019-01-05T06:38:32.733Z,7.6
2019-01-05T06:39:34.855Z,7.7
2019-01-05T06:40:37.007Z,7.7
2019-01-05T06:41:39.133Z,7.6
2019-01-05T06:42:41.290Z,7.7
2019-01-05T06:43:43.436Z,7.7
2019-01-05T06:44:45.598Z,7.7
2019-01-05T06:45:47.724Z,7.7
2019-01-05T06:46:49.883Z,7.7
2019-01-05T06:47:52.019Z,7.7
2019-01-05T06:48:54.151Z,7.7
2019-01-05T06:49:56.297Z,7.7
2019-01-05T06:50:58.419Z,7.7
2019-01-05T06:52:00.567Z,7.6
2019-01-05T06:53:03.096Z,7.7
2019-01-05T06:54:05.281Z,7.7
2019-01-05T06:55:07.401Z,7.7
2019-01-05T06:56:09.582Z,7.7
2019-01-05T06:57:11.718Z,7.7
2019-01-05T06:58:13.842Z,7.7
2019-01-05T06:59:15.992Z,7.7
2019-01-05T07:00:18.445Z,7.7
2019-01-05T07:01:20.613Z,7.7
2019-01-05T07:02:22.773Z,7.7
2019-01-05T07:03:24.913Z,7.7
2019-01-05T07:04:27.054Z,7.7
2019-01-05T07:05:29.213Z,7.7
2019-01-05T07:06:31.347Z,7.7
2019-01-05T07:07:33.469Z,7.7
2019-01-05T07:08:35.633Z,7.7
2019-01-05T07:09:37.785Z,7.7
2019-01-05T07:10:39.939Z,7.7
2019-01-05T07:11:42.073Z,7.7
2019-01-05T07:12:44.225Z,7.7
2019-01-05T07:13:46.638Z,7.7
2019-01-05T07:14:48.772Z,7.7
2019-01-05T07:15:50.915Z,7.7
2019-01-05T07:16:53.063Z,7.7
2019-01-05T07:17:55.566Z,7.7
2019-01-05T07:18:57.705Z,7.7
2019-01-05T07:19:59.848Z,7.7
2019-01-05T07:21:02.068Z,7.7
2019-01-05T07:22:04.224Z,7.7
2019-01-05T07:23:06.341Z,7.7
2019-01-05T07:24:08.476Z,7.7
2019-01-05T07:25:10.610Z,7.7
2019-01-05T07:26:12.740Z,7.7
2019-01-05T07:27:14.882Z,7.7
2019-01-05T07:28:17.011Z,7.7
2019-01-05T07:29:19.166Z,7.7
2019-01-05T07:30:21.291Z,7.7
2019-01-05T07:31:23.416Z,7.7
2019-01-05T07:32:25.562Z,7.7
2019-01-05T07:33:27.711Z,7.7
2019-01-05T07:34:29.835Z,7.7
2019-01-05T07:35:31.979Z,7.7
2019-01-05T07:36:34.125Z,7.7
2019-01-05T07:37:36.264Z,7.7
2019-01-05T07:38:38.451Z,7.7
2019-01-05T07:39:40.582Z,7.7
2019-01-05T07:40:42.711Z,7.7
2019-01-05T07:41:44.856Z,7.7
2019-01-05T07:42:46.997Z,7.7
2019-01-05T07:43:49.127Z,7.7
2019-01-05T07:44:51.253Z,7.7
2019-01-05T07:45:53.387Z,7.7
2019-01-05T07:46:55.524Z,7.7
2019-01-05T07:47:57.651Z,7.7
2019-01-05T07:48:59.784Z,7.7
2019-01-05T07:50:01.932Z,7.7
2019-01-05T07:51:04.358Z,7.7
2019-01-05T07:52:06.486Z,7.7
2019-01-05T07:53:08.618Z,7.7
2019-01-05T07:54:10.752Z,7.7
2019-01-05T07:55:13.485Z,7.7
2019-01-05T07:56:15.627Z,7.7
2019-01-05T07:57:18.061Z,7.7
2019-01-05T07:58:20.189Z,7.7
2019-01-05T07:59:22.328Z,7.7
2019-01-05T08:00:24.485Z,7.7
2019-01-05T08:01:26.633Z,7.7
2019-01-05T08:02:29.054Z,7.7
2019-01-05T08:03:31.202Z,7.7
2019-01-05T08:04:33.337Z,7.7
2019-01-05T08:05:35.476Z,7.7
2019-01-05T08:06:37.903Z,7.7
2019-01-05T08:07:40.055Z,7.7
2019-01-05T08:08:42.252Z,7.7
2019-01-05T08:09:44.376Z,7.7
2019-01-05T08:10:46.506Z,7.7
2019-01-05T08:11:48.668Z,7.7
2019-01-05T08:12:50.821Z,7.7
2019-01-05T08:13:53.349Z,7.6
2019-01-05T08:14:55.600Z,7.6
2019-01-05T08:15:57.775Z,7.6
2019-01-05T08:17:00.701Z,7.6
2019-01-05T08:18:03.252Z,7.6
2019-01-05T08:19:05.380Z,7.6
2019-01-05T08:20:07.827Z,7.7
2019-01-05T08:21:10.129Z,7.7
2019-01-05T08:22:12.983Z,7.6
2019-01-05T08:23:15.398Z,7.6
2019-01-05T08:24:17.914Z,7.6
2019-01-05T08:25:20.154Z,7.6
2019-01-05T08:26:22.360Z,7.6
2019-01-05T08:27:24.583Z,7.6
2019-01-05T08:28:26.726Z,7.6
2019-01-05T08:29:29.566Z,7.6
2019-01-05T08:30:31.780Z,7.5
2019-01-05T08:31:33.935Z,7.5
2019-01-05T08:32:36.075Z,7.5
2019-01-05T08:33:38.226Z,7.6
2019-01-05T08:34:40.577Z,7.6
2019-01-05T08:35:42.987Z,7.6
2019-01-05T08:36:45.126Z,7.6
2019-01-05T08:37:47.263Z,7.6
2019-01-05T08:38:49.586Z,7.6
2019-01-05T08:39:51.757Z,7.6
2019-01-05T08:40:53.946Z,7.6
2019-01-05T08:41:56.261Z,7.6
2019-01-05T08:42:58.650Z,7.6
2019-01-05T08:44:00.880Z,7.6
2019-01-05T08:45:03.395Z,7.6
2019-01-05T08:46:06.121Z,7.6
2019-01-05T08:47:08.526Z,7.6
2019-01-05T08:48:12.345Z,7.6
2019-01-05T08:49:15.487Z,7.6
2019-01-05T08:50:17.737Z,7.6
2019-01-05T08:51:19.875Z,7.6
2019-01-05T08:52:24.382Z,7.7
2019-01-05T08:53:27.622Z,7.6
2019-01-05T08:54:30.056Z,7.6
2019-01-05T08:55:33.996Z,7.6
2019-01-05T08:56:36.283Z,7.6
2019-01-05T08:57:38.600Z,7.7
2019-01-05T08:58:41.673Z,7.7
2019-01-05T08:59:45.640Z,7.7
2019-01-05T09:00:51.595Z,7.6
2019-01-05T09:01:57.443Z,7.6
2019-01-05T09:02:59.598Z,7.6
2019-01-05T09:04:01.790Z,7.6
2019-01-05T09:05:03.929Z,7.7
2019-01-05T09:06:06.848Z,7.7
2019-01-05T09:07:09.360Z,7.7
2019-01-05T09:08:11.561Z,7.7
2019-01-05T09:09:13.737Z,7.7
2019-01-05T09:10:15.956Z,7.7
2019-01-05T09:11:18.146Z,7.7
2019-01-05T09:12:20.329Z,7.7
2019-01-05T09:13:24.041Z,7.7
2019-01-05T09:14:27.104Z,7.7
2019-01-05T09:15:30.646Z,7.7
2019-01-05T09:16:33.188Z,7.7
2019-01-05T09:17:35.361Z,7.7
2019-01-05T09:18:37.544Z,7.7
2019-01-05T09:19:39.787Z,7.7
2019-01-05T09:20:41.990Z,7.7
2019-01-05T09:21:44.572Z,7.8
2019-01-05T09:22:48.234Z,7.8
2019-01-05T09:23:57.219Z,7.8
2019-01-05T09:25:01.817Z,7.7
2019-01-05T09:26:04.373Z,7.8
2019-01-05T09:27:06.502Z,7.8
2019-01-05T09:28:08.628Z,7.8
2019-01-05T09:29:10.774Z,7.8
2019-01-05T09:30:13.494Z,7.8
2019-01-05T09:31:16.064Z,7.8
2019-01-05T09:32:18.573Z,7.8
2019-01-05T09:33:21.278Z,7.8
2019-01-05T09:34:23.707Z,7.8
2019-01-05T09:35:25.860Z,7.8
2019-01-05T09:36:28.146Z,7.8
2019-01-05T09:37:30.433Z,7.8
2019-01-05T09:38:32.859Z,7.9
2019-01-05T09:39:34.991Z,7.9
2019-01-05T09:40:37.527Z,7.9
2019-01-05T09:41:39.683Z,7.9
2019-01-05T09:42:41.826Z,7.9
2019-01-05T09:43:43.987Z,7.9
2019-01-05T09:44:46.135Z,7.9
2019-01-05T09:45:48.276Z,7.9
2019-01-05T09:46:50.431Z,7.9
2019-01-05T09:47:52.869Z,7.9
2019-01-05T09:48:55.015Z,7.9
2019-01-05T09:49:57.144Z,7.9
2019-01-05T09:50:59.292Z,7.9
2019-01-05T09:52:01.854Z,7.9
2019-01-05T09:53:04.049Z,7.8
2019-01-05T09:54:06.762Z,7.9
2019-01-05T09:55:08.888Z,7.9
2019-01-05T09:56:11.048Z,7.9
2019-01-05T09:57:13.192Z,7.9
2019-01-05T09:58:15.334Z,7.9
2019-01-05T09:59:17.492Z,8
2019-01-05T10:00:19.639Z,8.1
2019-01-05T10:01:21.806Z,8.1
2019-01-05T10:02:23.945Z,8
2019-01-05T10:03:26.107Z,8
2019-01-05T10:04:28.537Z,8
2019-01-05T10:05:30.671Z,7.9
2019-01-05T10:06:33.094Z,8
2019-01-05T10:07:35.216Z,8
2019-01-05T10:08:37.364Z,8.1
2019-01-05T10:09:39.788Z,8.1
2019-01-05T10:10:42.252Z,8.1
2019-01-05T10:11:44.408Z,8
2019-01-05T10:12:46.832Z,8.1
2019-01-05T10:13:48.963Z,8.1
2019-01-05T10:14:51.369Z,8.1
2019-01-05T10:15:53.495Z,8.1
2019-01-05T10:16:55.640Z,8.1
2019-01-05T10:17:57.798Z,8.1
2019-01-05T10:18:59.960Z,8.1
2019-01-05T10:20:02.097Z,8.2
2019-01-05T10:21:04.544Z,8.1
2019-01-05T10:22:06.685Z,8.1
2019-01-05T10:23:08.836Z,8.1
2019-01-05T10:24:10.961Z,8.1
2019-01-05T10:25:13.106Z,8.1
2019-01-05T10:26:15.253Z,8.1
2019-01-05T10:27:17.376Z,8.1
2019-01-05T10:28:19.528Z,8.1
2019-01-05T10:29:21.660Z,8.1
2019-01-05T10:30:23.804Z,8.1
2019-01-05T10:31:26.228Z,8.2
2019-01-05T10:32:28.687Z,8.2
2019-01-05T10:33:30.841Z,8.1
2019-01-05T10:34:33.511Z,8.2
2019-01-05T10:35:36.349Z,8.1
2019-01-05T10:36:38.481Z,8.1
2019-01-05T10:37:40.622Z,8.1
2019-01-05T10:38:42.744Z,8.2
2019-01-05T10:39:44.865Z,8.2
2019-01-05T10:40:47.106Z,8.1
2019-01-05T10:41:49.265Z,8.2
2019-01-05T10:42:51.421Z,8.2
2019-01-05T10:43:53.560Z,8.1
2019-01-05T10:44:55.691Z,8.1
2019-01-05T10:45:58.143Z,8.1
2019-01-05T10:47:00.583Z,8.2
2019-01-05T10:48:02.741Z,8.3
2019-01-05T10:49:04.879Z,8.3
2019-01-05T10:50:07.014Z,8.3
2019-01-05T10:51:09.151Z,8.2
2019-01-05T10:52:11.288Z,8.3
2019-01-05T10:53:13.406Z,8.3
2019-01-05T10:54:15.528Z,8.3
2019-01-05T10:55:17.696Z,8.4
2019-01-05T10:56:19.847Z,8.3
2019-01-05T10:57:21.979Z,8.3
2019-01-05T10:58:24.460Z,8.3
2019-01-05T10:59:27.163Z,8.3
2019-01-05T11:00:29.312Z,8.4
2019-01-05T11:01:31.464Z,8.3
2019-01-05T11:02:33.602Z,8.4
2019-01-05T11:03:35.739Z,8.4
2019-01-05T11:04:37.942Z,8.4
2019-01-05T11:05:42.332Z,8.4
2019-01-05T11:06:45.769Z,8.3
2019-01-05T11:07:48.495Z,8.3
2019-01-05T11:08:54.534Z,8.5
2019-01-05T11:09:57.978Z,8.5
2019-01-05T11:11:06.666Z,8.4
2019-01-05T11:12:10.574Z,8.5
2019-01-05T11:13:13.018Z,8.5
2019-01-05T11:14:15.185Z,8.4
2019-01-05T11:15:17.744Z,8.5
2019-01-05T11:16:19.943Z,8.5
2019-01-05T11:17:23.272Z,8.5
2019-01-05T11:18:25.436Z,8.5
2019-01-05T11:19:27.586Z,8.5
2019-01-05T11:20:36.529Z,8.5
2019-01-05T11:21:38.799Z,8.5
2019-01-05T11:22:40.956Z,8.4
2019-01-05T11:23:43.528Z,8.5
2019-01-05T11:24:45.876Z,8.6
2019-01-05T11:25:48.620Z,8.6
2019-01-05T11:26:50.777Z,8.5
2019-01-05T11:27:52.930Z,8.6
2019-01-05T11:28:55.933Z,8.5
2019-01-05T11:29:58.235Z,8.6
2019-01-05T11:31:01.589Z,8.6
2019-01-05T11:32:04.538Z,8.6
2019-01-05T11:33:07.141Z,8.6
2019-01-05T11:34:09.483Z,8.6
2019-01-05T11:35:11.683Z,8.6
2019-01-05T11:36:13.827Z,8.6
2019-01-05T11:37:15.962Z,8.6
2019-01-05T11:38:18.124Z,8.7
2019-01-05T11:39:20.268Z,8.6
2019-01-05T11:40:23.242Z,8.6
2019-01-05T11:41:25.412Z,8.6
2019-01-05T11:42:27.566Z,8.6
2019-01-05T11:43:29.745Z,8.7
2019-01-05T11:44:31.982Z,8.6
2019-01-05T11:45:34.241Z,8.7
2019-01-05T11:46:36.388Z,8.6
2019-01-05T11:47:38.543Z,8.8
2019-01-05T11:48:40.694Z,8.8
2019-01-05T11:49:43.164Z,8.8
2019-01-05T11:50:45.734Z,8.8
2019-01-05T11:51:48.219Z,8.8
2019-01-05T11:52:50.678Z,8.9
2019-01-05T11:53:52.870Z,8.9
2019-01-05T11:54:55.032Z,8.9
2019-01-05T11:55:57.240Z,9
2019-01-05T11:56:59.694Z,9
2019-01-05T11:58:01.885Z,8.9
2019-01-05T11:59:04.034Z,8.9
2019-01-05T12:00:06.188Z,9
2019-01-05T12:01:08.662Z,9.2
2019-01-05T12:02:10.844Z,9.2
2019-01-05T12:03:13.026Z,9.2
2019-01-05T12:04:15.155Z,9.3
2019-01-05T12:05:17.348Z,9.3
2019-01-05T12:06:19.568Z,9.4
2019-01-05T12:07:21.767Z,9.4
2019-01-05T12:08:23.987Z,9.3
2019-01-05T12:09:26.183Z,9.2
2019-01-05T12:10:28.427Z,9.2
2019-01-05T12:11:30.639Z,9.2
2019-01-05T12:12:32.822Z,9.3
2019-01-05T12:13:35.258Z,9.3
2019-01-05T12:14:37.414Z,9.3
2019-01-05T12:15:39.550Z,9.2
2019-01-05T12:16:42.115Z,9.2
2019-01-05T12:17:44.262Z,9.2
2019-01-05T12:18:46.406Z,9.2
2019-01-05T12:19:48.562Z,9.1
2019-01-05T12:20:50.731Z,9.1
2019-01-05T12:21:52.886Z,9.1
2019-01-05T12:22:55.311Z,9.1
2019-01-05T12:23:57.468Z,9.1
2019-01-05T12:24:59.661Z,9.1
2019-01-05T12:26:01.826Z,9.1
2019-01-05T12:27:03.997Z,9.1
2019-01-05T12:28:06.151Z,9.1
2019-01-05T12:29:08.852Z,9
2019-01-05T12:30:10.991Z,9
2019-01-05T12:31:13.154Z,8.9
2019-01-05T12:32:15.304Z,9
2019-01-05T12:33:17.728Z,9
2019-01-05T12:34:19.875Z,8.9
2019-01-05T12:35:22.035Z,8.9
2019-01-05T12:36:24.187Z,8.9
2019-01-05T12:37:26.605Z,9
2019-01-05T12:38:28.788Z,8.9
2019-01-05T12:39:30.939Z,8.9
2019-01-05T12:40:33.086Z,8.9
2019-01-05T12:41:35.230Z,9
2019-01-05T12:42:37.654Z,8.8
2019-01-05T12:43:39.798Z,8.9
2019-01-05T12:44:41.945Z,9
2019-01-05T12:45:44.393Z,9
2019-01-05T12:46:48.509Z,9.1
2019-01-05T12:47:50.986Z,9
2019-01-05T12:48:53.143Z,9
2019-01-05T12:49:55.598Z,9
2019-01-05T12:50:57.751Z,8.9
2019-01-05T12:51:59.899Z,9
2019-01-05T12:53:02.048Z,9
2019-01-05T12:54:04.200Z,9
2019-01-05T12:55:06.768Z,8.9
2019-01-05T12:56:08.914Z,9
2019-01-05T12:57:11.058Z,8.9
2019-01-05T12:58:13.204Z,8.9
2019-01-05T12:59:15.338Z,8.9
2019-01-05T13:00:17.468Z,8.9
2019-01-05T13:01:20.010Z,8.8
2019-01-05T13:02:22.147Z,8.8
2019-01-05T13:03:24.314Z,8.7
2019-01-05T13:04:26.510Z,8.6
2019-01-05T13:05:28.652Z,8.7
2019-01-05T13:06:30.794Z,8.7
2019-01-05T13:07:33.018Z,8.5
2019-01-05T13:08:35.175Z,8.4
2019-01-05T13:09:37.319Z,8.4
2019-01-05T13:10:39.897Z,8.5
2019-01-05T13:11:42.587Z,8.5
2019-01-05T13:12:45.116Z,8.4
2019-01-05T13:13:47.830Z,8.4
2019-01-05T13:14:50.100Z,8.4
2019-01-05T13:15:52.241Z,8.4
2019-01-05T13:16:55.777Z,8.3
2019-01-05T13:17:57.954Z,8.3
2019-01-05T13:19:00.387Z,8.1
2019-01-05T13:20:02.942Z,8.2
2019-01-05T13:21:05.073Z,8.2
2019-01-05T13:22:07.206Z,8.1
2019-01-05T13:23:09.353Z,8.1
2019-01-05T13:24:11.502Z,8.1
2019-01-05T13:25:14.335Z,8
2019-01-05T13:26:16.494Z,8.1
2019-01-05T13:27:19.618Z,8
2019-01-05T13:28:23.949Z,8.1
2019-01-05T13:29:32.592Z,8
2019-01-05T13:30:37.371Z,7.9
2019-01-05T13:31:40.759Z,8
2019-01-05T13:32:47.755Z,7.8
2019-01-05T13:33:50.900Z,7.8
2019-01-05T13:34:53.507Z,7.8
2019-01-05T13:35:55.974Z,7.9
2019-01-05T13:36:58.407Z,7.9
2019-01-05T13:38:00.902Z,7.9
2019-01-05T13:39:03.086Z,8
2019-01-05T13:40:05.386Z,8
2019-01-05T13:41:07.653Z,7.9
2019-01-05T13:42:10.091Z,7.8
2019-01-05T13:43:12.297Z,7.8
2019-01-05T13:44:17.099Z,7.9
2019-01-05T13:45:19.392Z,7.8
2019-01-05T13:46:21.977Z,7.8
2019-01-05T13:47:27.103Z,7.8
2019-01-05T13:48:29.840Z,7.7
2019-01-05T13:49:32.304Z,7.8
2019-01-05T13:50:36.014Z,7.8
2019-01-05T13:51:38.267Z,7.7
2019-01-05T13:52:40.507Z,7.7
2019-01-05T13:53:45.423Z,7.6
2019-01-05T13:54:47.962Z,7.6
2019-01-05T13:55:52.643Z,7.6
2019-01-05T13:56:56.995Z,7.6
2019-01-05T13:57:59.457Z,7.6
2019-01-05T13:59:02.165Z,7.5
2019-01-05T14:00:04.501Z,7.6
2019-01-05T14:01:06.928Z,7.5
2019-01-05T14:02:09.332Z,7.5
2019-01-05T14:03:11.514Z,7.4
2019-01-05T14:04:13.884Z,7.4
2019-01-05T14:05:21.044Z,7.3
2019-01-05T14:06:24.374Z,7.4
2019-01-05T14:07:26.718Z,7.3
2019-01-05T14:08:29.134Z,7.3
2019-01-05T14:09:33.285Z,7.3
2019-01-05T14:10:36.438Z,7.3
2019-01-05T14:11:38.653Z,7.3
2019-01-05T14:12:40.795Z,7.3
2019-01-05T14:13:42.931Z,7.3
2019-01-05T14:14:45.068Z,7.3
2019-01-05T14:15:47.493Z,7.2
2019-01-05T14:16:49.655Z,7.2
2019-01-05T14:17:51.814Z,7.2
2019-01-05T14:18:53.955Z,7.2
2019-01-05T14:19:56.163Z,7.2
2019-01-05T14:20:58.309Z,7.2
2019-01-05T14:22:00.468Z,7.2